Time;durP1;ratioP1;P1;durP2;ratioP2;P2;SDS_P1;SDS_P2;PMS_P1;PMS_P2;Temp;Humidity;BMP_temperature;BMP_pressure;BME280_temperature;BME280_humidity;BME280_pressure;Samples;Min_cycle;Max_cycle;Signal;HPM_P1;HPM_P2
2023/07/17 00:02:11;;;;;;;13.93;9.18;;;;;;;26.91;54.50;99694.41;7649180;32;37902;-85
2023/07/17 00:06:29;;;;;;;13.48;9.98;;;;;;;26.73;55.01;99694.22;7648669;32;37351;-84
2023/07/17 00:10:46;;;;;;;12.75;9.80;;;;;;;26.66;55.21;99694.94;7651918;32;39901;-84
2023/07/17 00:15:05;;;;;;;13.18;10.02;;;;;;;26.64;55.01;99690.94;7652952;32;38542;-83
2023/07/17 00:19:22;;;;;;;14.15;9.85;;;;;;;26.48;55.46;99694.75;7663634;32;37089;-83
2023/07/17 00:23:38;;;;;;;15.07;10.55;;;;;;;26.51;55.37;99687.56;7645880;32;38660;-83
2023/07/17 00:27:54;;;;;;;17.90;10.32;;;;;;;26.46;55.48;99694.31;7645905;32;40877;-84
2023/07/17 00:32:14;;;;;;;15.32;10.05;;;;;;;26.41;55.63;99701.03;7643217;32;37229;-84
2023/07/17 00:36:31;;;;;;;13.32;10.15;;;;;;;26.32;56.49;99710.91;7646653;32;38167;-83
2023/07/17 00:40:47;;;;;;;14.90;9.73;;;;;;;26.37;56.40;99703.00;7654558;32;39349;-83
2023/07/17 00:45:05;;;;;;;12.85;10.02;;;;;;;26.27;56.54;99703.69;7646018;32;40156;-84
2023/07/17 00:49:23;;;;;;;13.18;9.57;;;;;;;26.13;56.84;99709.91;7649148;32;38607;-83
2023/07/17 00:53:39;;;;;;;13.15;10.30;;;;;;;26.42;55.78;99708.25;7649649;32;36165;-84
2023/07/17 00:57:56;;;;;;;12.07;9.77;;;;;;;26.20;56.58;99693.22;7647833;32;39066;-84
2023/07/17 01:02:12;;;;;;;15.32;10.18;;;;;;;26.32;56.41;99694.13;7644435;32;40804;-84
2023/07/17 01:06:30;;;;;;;15.35;9.98;;;;;;;26.45;55.89;99684.31;7651338;32;37956;-83
2023/07/17 01:10:46;;;;;;;15.80;10.20;;;;;;;26.34;56.33;99681.41;7649446;32;36880;-83
2023/07/17 01:15:04;;;;;;;14.85;9.50;;;;;;;26.21;56.74;99678.03;7650413;32;39316;-84
2023/07/17 01:19:20;;;;;;;13.25;9.88;;;;;;;26.17;56.86;99680.00;7652919;32;39669;-84
2023/07/17 01:23:37;;;;;;;14.02;9.73;;;;;;;26.18;56.68;99683.59;7656557;32;38499;-83
2023/07/17 01:27:53;;;;;;;12.98;9.75;;;;;;;26.20;56.52;99673.66;7656029;32;37966;-83
2023/07/17 01:32:09;;;;;;;14.90;9.90;;;;;;;26.20;56.46;99668.06;7658585;32;39110;-84
2023/07/17 01:36:26;;;;;;;13.38;9.70;;;;;;;26.18;56.43;99676.03;7658351;32;39956;-84
2023/07/17 01:40:42;;;;;;;14.90;9.38;;;;;;;26.08;56.86;99676.72;7658855;32;38906;-84
2023/07/17 01:44:59;;;;;;;13.48;10.05;;;;;;;26.11;56.95;99677.91;7658689;32;37211;-84
2023/07/17 01:49:15;;;;;;;12.32;9.00;;;;;;;26.01;57.20;99682.22;7658668;32;40611;-85
2023/07/17 01:53:32;;;;;;;13.73;9.93;;;;;;;26.07;56.83;99686.25;7658433;32;39710;-84
2023/07/17 01:57:48;;;;;;;12.80;10.02;;;;;;;25.95;57.22;99689.28;7658181;32;37374;-84
2023/07/17 02:02:05;;;;;;;14.90;9.77;;;;;;;26.00;56.91;99686.16;7658492;32;37473;-84
2023/07/17 02:06:22;;;;;;;18.10;10.85;;;;;;;25.94;56.98;99690.44;7658426;32;40105;-84
2023/07/17 02:10:43;;;;;;;11.38;8.85;;;;;;;26.09;56.39;99699.84;7658156;32;40791;-84
2023/07/17 02:14:59;;;;;;;12.55;10.05;;;;;;;25.99;56.90;99702.13;7658348;32;37836;-84
2023/07/17 02:19:16;;;;;;;13.13;9.30;;;;;;;25.81;57.53;99713.00;7657955;32;37840;-85
2023/07/17 02:23:32;;;;;;;13.13;9.43;;;;;;;25.76;57.73;99718.13;7655584;32;39311;-84
2023/07/17 02:27:49;;;;;;;13.35;10.10;;;;;;;25.78;57.42;99741.66;7631730;32;39951;-84
2023/07/17 02:32:06;;;;;;;14.13;9.85;;;;;;;25.76;57.40;99749.63;7631750;32;37900;-83
2023/07/17 02:36:22;;;;;;;12.23;10.07;;;;;;;25.57;57.98;99744.94;7631674;32;37844;-84
2023/07/17 02:40:38;;;;;;;12.75;9.60;;;;;;;25.49;58.37;99743.22;7649082;32;39631;-84
2023/07/17 02:44:55;;;;;;;15.13;10.38;;;;;;;25.49;58.51;99754.38;7657792;32;39947;-83
2023/07/17 02:49:13;;;;;;;15.68;10.20;;;;;;;25.54;58.38;99758.84;7656439;32;38662;-84
2023/07/17 02:53:31;;;;;;;15.27;10.93;;;;;;;25.50;58.77;99753.22;7657842;32;36987;-85
2023/07/17 02:57:47;;;;;;;16.62;10.98;;;;;;;25.35;59.47;99757.75;7658018;32;39116;-84
2023/07/17 03:02:05;;;;;;;13.85;10.88;;;;;;;25.37;59.56;99762.94;7657299;32;40517;-85
2023/07/17 03:06:22;;;;;;;12.65;9.98;;;;;;;25.33;59.72;99759.31;7657368;32;37833;-84
2023/07/17 03:10:38;;;;;;;14.07;11.48;;;;;;;25.46;59.31;99747.56;7655544;32;36839;-83
2023/07/17 03:14:54;;;;;;;13.75;11.02;;;;;;;25.36;59.67;99758.56;7656159;32;40056;-84
2023/07/17 03:19:11;;;;;;;13.52;10.23;;;;;;;25.30;60.05;99749.69;7656771;32;39977;-84
2023/07/17 03:23:27;;;;;;;12.50;9.90;;;;;;;25.39;59.59;99744.66;7656780;32;37888;-84
2023/07/17 03:27:44;;;;;;;15.15;10.02;;;;;;;25.41;59.37;99747.09;7656716;32;37246;-83
2023/07/17 03:32:00;;;;;;;12.63;10.50;;;;;;;25.36;59.28;99742.63;7656838;32;39090;-83
2023/07/17 03:36:16;;;;;;;12.90;10.27;;;;;;;25.19;59.37;99743.09;7656671;32;39991;-84
2023/07/17 03:40:33;;;;;;;14.95;11.15;;;;;;;25.18;59.10;99744.25;7656364;32;38560;-84
2023/07/17 03:44:49;;;;;;;14.65;10.43;;;;;;;25.16;59.17;99741.03;7656576;32;36954;-85
2023/07/17 03:49:05;;;;;;;15.88;10.77;;;;;;;25.30;58.79;99738.53;7655631;32;40170;-84
2023/07/17 03:53:22;;;;;;;16.98;10.52;;;;;;;25.16;59.20;99743.84;7656201;32;39925;-84
2023/07/17 03:57:38;;;;;;;18.02;10.80;;;;;;;25.23;58.95;99743.97;7656131;32;38525;-85
2023/07/17 04:01:55;;;;;;;14.00;10.38;;;;;;;25.24;58.98;99742.78;7659790;32;37976;-84
2023/07/17 04:06:11;;;;;;;16.00;10.90;;;;;;;25.26;59.35;99743.25;7659601;32;39985;-84
2023/07/17 04:10:28;;;;;;;11.95;9.60;;;;;;;25.33;59.13;99754.53;7659481;32;39928;-84
2023/07/17 04:14:45;;;;;;;14.63;10.82;;;;;;;25.27;59.60;99756.03;7659847;32;37893;-84
2023/07/17 04:19:01;;;;;;;14.52;11.27;;;;;;;25.41;59.29;99759.06;7657417;32;37239;-83
2023/07/17 04:23:17;;;;;;;13.40;9.52;;;;;;;25.44;59.38;99751.91;7659562;32;40062;-83
2023/07/17 04:27:33;;;;;;;14.43;10.30;;;;;;;25.45;59.22;99754.31;7659164;32;39964;-84
2023/07/17 04:31:50;;;;;;;17.62;10.55;;;;;;;25.52;59.19;99758.44;7659415;32;38676;-83
2023/07/17 04:36:07;;;;;;;14.25;10.55;;;;;;;25.42;59.78;99760.69;7659138;32;37143;-79
2023/07/17 04:40:23;;;;;;;12.85;10.52;;;;;;;25.42;59.55;99765.44;7659363;32;39367;-80
2023/07/17 04:44:39;;;;;;;15.57;11.23;;;;;;;25.37;59.96;99755.41;7659327;32;40017;-71
2023/07/17 04:48:56;;;;;;;14.32;10.35;;;;;;;25.55;59.58;99749.31;7658904;32;37767;-71
2023/07/17 04:53:12;;;;;;;12.45;10.40;;;;;;;25.64;59.73;99755.44;7659399;32;37371;-71
2023/07/17 04:57:28;;;;;;;13.98;10.07;;;;;;;25.96;58.78;99760.72;7658934;32;39928;-71
2023/07/17 05:01:44;;;;;;;16.95;10.10;;;;;;;26.13;58.20;99757.37;7659132;32;40065;-71
2023/07/17 05:06:00;;;;;;;17.73;10.55;;;;;;;26.36;57.46;99762.06;7658690;32;37987;-72
2023/07/17 05:10:18;;;;;;;18.40;9.60;;;;;;;26.54;56.07;99749.09;7658399;32;37986;-73
2023/07/17 05:14:34;;;;;;;12.93;9.73;;;;;;;26.75;55.99;99754.19;7658645;32;39039;-72
2023/07/17 05:18:50;;;;;;;12.77;9.38;;;;;;;26.96;55.58;99758.41;7646733;32;39638;-72
2023/07/17 05:23:06;;;;;;;14.05;9.13;;;;;;;27.00;55.44;99762.03;7658897;32;37844;-73
2023/07/17 05:27:22;;;;;;;13.80;9.38;;;;;;;26.80;57.11;99769.78;7658379;32;37977;-71
2023/07/17 05:31:40;;;;;;;32.00;19.52;;;;;;;26.88;57.01;99757.50;7658844;32;40087;-71
2023/07/17 05:35:56;;;;;;;22.52;14.87;;;;;;;26.75;57.15;99770.13;7658280;32;39956;-71
2023/07/17 05:40:12;;;;;;;30.15;18.75;;;;;;;27.19;56.36;99761.00;7658686;32;37662;-72
2023/07/17 05:44:28;;;;;;;24.17;15.73;;;;;;;27.46;55.80;99758.09;7658411;32;37918;-78
2023/07/17 05:48:45;;;;;;;14.77;9.15;;;;;;;27.57;55.13;99742.16;7658463;32;39156;-79
2023/07/17 05:53:03;;;;;;;29.55;15.93;;;;;;;27.61;53.60;99742.19;7658575;32;40019;-80
2023/07/17 05:57:19;;;;;;;21.35;13.13;;;;;;;27.48;56.48;99748.09;7658288;32;36946;-81
2023/07/17 06:01:35;;;;;;;20.05;13.25;;;;;;;27.54;53.44;99749.37;7658547;32;37939;-78
2023/07/17 06:05:51;;;;;;;15.00;10.40;;;;;;;27.71;53.45;99753.47;7658130;32;40060;-80
2023/07/17 06:10:08;;;;;;;14.32;8.73;;;;;;;28.03;52.86;99750.09;7658375;32;39890;-79
2023/07/17 06:14:24;;;;;;;15.40;8.48;;;;;;;27.58;54.07;99759.75;7647794;32;38805;-80
2023/07/17 06:18:40;;;;;;;12.15;8.40;;;;;;;27.91;53.46;99758.81;7649469;32;38249;-83
2023/07/17 06:22:57;;;;;;;13.55;8.13;;;;;;;28.28;52.62;99757.84;7647107;32;39426;-83
2023/07/17 06:27:13;;;;;;;12.18;8.05;;;;;;;28.52;52.66;99750.72;7647471;32;40728;-84
2023/07/17 06:31:29;;;;;;;12.93;7.55;;;;;;;28.62;52.32;99746.41;7655851;32;37830;-83
2023/07/17 06:35:46;;;;;;;13.85;7.95;;;;;;;28.58;52.68;99742.75;7647103;32;36950;-83
2023/07/17 06:40:04;;;;;;;12.77;8.10;;;;;;;28.48;52.76;99745.09;7642204;32;39887;-68
2023/07/17 06:44:20;;;;;;;12.75;7.90;;;;;;;28.54;50.88;99744.72;7640069;32;39893;-69
2023/07/17 06:48:36;;;;;;;10.88;7.53;;;;;;;28.79;50.88;99740.03;7641557;32;36376;-68
2023/07/17 06:52:53;;;;;;;10.40;7.55;;;;;;;28.84;50.86;99744.47;7641986;32;37914;-68
2023/07/17 06:57:09;;;;;;;11.77;7.85;;;;;;;29.25;50.34;99740.50;7641241;32;40155;-72
2023/07/17 07:01:25;;;;;;;11.88;7.72;;;;;;;29.66;48.01;99737.28;7640422;32;40852;-74
2023/07/17 07:05:52;;;;;;;13.15;7.45;;;;;;;29.31;48.53;99744.53;7641632;32;37961;-72
2023/07/17 07:10:08;;;;;;;13.23;7.43;;;;;;;29.12;48.86;99743.69;7641504;32;36773;-74
2023/07/17 07:14:24;;;;;;;12.88;7.57;;;;;;;29.64;48.09;99745.34;7641125;32;39318;-83
2023/07/17 07:18:41;;;;;;;12.18;7.22;;;;;;;30.19;47.35;99735.59;7639505;32;40849;-81
2023/07/17 07:22:57;;;;;;;11.48;6.78;;;;;;;30.44;48.03;99729.91;7641770;32;37967;-81
2023/07/17 07:27:13;;;;;;;13.93;7.05;;;;;;;30.86;46.21;99728.06;7641316;32;37105;-82
2023/07/17 07:31:29;;;;;;;9.55;6.40;;;;;;;30.76;46.26;99728.94;7645918;32;40120;-81
2023/07/17 07:35:46;;;;;;;10.23;5.35;;;;;;;30.81;46.11;99731.31;7646307;32;40897;-83
2023/07/17 07:40:03;;;;;;;8.45;5.78;;;;;;;31.29;44.65;99727.78;7641680;32;36267;-83
2023/07/17 07:44:19;;;;;;;9.75;5.87;;;;;;;31.83;42.88;99730.91;7642891;32;37270;-83
2023/07/17 07:48:36;;;;;;;7.80;5.40;;;;;;;31.93;42.70;99728.41;7645814;32;39465;-82
2023/07/17 07:52:52;;;;;;;11.25;5.30;;;;;;;32.31;41.77;99726.37;7648502;32;40995;-82
2023/07/17 07:57:10;;;;;;;11.93;5.25;;;;;;;32.61;41.48;99724.00;7647323;32;37839;-82
2023/07/17 08:01:26;;;;;;;8.05;5.05;;;;;;;32.60;39.43;99728.00;7644866;32;37278;-83
2023/07/17 08:05:43;;;;;;;6.95;5.12;;;;;;;32.94;39.17;99728.78;7652613;32;39396;-82
2023/07/17 08:09:59;;;;;;;7.87;4.87;;;;;;;33.18;37.71;99723.16;7659824;32;39943;-86
2023/07/17 08:14:15;;;;;;;8.32;4.60;;;;;;;33.27;36.90;99719.78;7658128;32;37825;-84
2023/07/17 08:18:31;;;;;;;8.95;5.05;;;;;;;33.41;37.31;99721.56;7658549;32;38302;-88
2023/07/17 08:22:50;;;;;;;8.88;5.37;;;;;;;33.50;36.37;99730.31;7659418;32;39314;-87
2023/07/17 08:27:06;;;;;;;9.30;5.10;;;;;;;33.63;38.23;99722.81;7659306;32;39788;-86
2023/07/17 08:31:22;;;;;;;7.05;4.80;;;;;;;34.10;36.84;99718.31;7659420;32;37918;-87
2023/07/17 08:35:39;;;;;;;8.55;4.85;;;;;;;33.96;34.71;99723.03;7658144;32;37110;-84
2023/07/17 08:39:56;;;;;;;11.07;5.10;;;;;;;34.10;36.32;99723.97;7659444;32;39237;-84
2023/07/17 08:44:16;;;;;;;9.68;4.35;;;;;;;34.27;34.71;99716.38;7658407;32;40604;-85
2023/07/17 08:48:33;;;;;;;5.68;3.80;;;;;;;34.47;33.14;99711.50;7659283;32;38750;-86
2023/07/17 08:52:50;;;;;;;6.62;4.37;;;;;;;34.38;32.35;99716.97;7658729;32;37066;-84
2023/07/17 08:57:08;;;;;;;9.30;3.62;;;;;;;34.54;32.57;99725.47;7658033;32;39390;-84
2023/07/17 09:01:25;;;;;;;7.32;4.37;;;;;;;34.73;32.91;99718.22;7658741;32;40032;-85
2023/07/17 09:05:43;;;;;;;7.12;4.47;;;;;;;35.00;32.28;99717.19;7658630;32;38104;-84
2023/07/17 09:10:19;;;;;;;7.90;4.20;;;;;;;35.05;32.19;99719.50;7655531;32;37311;-84
2023/07/17 09:14:36;;;;;;;7.30;4.70;;;;;;;35.21;31.97;99703.75;7633598;32;41995;-84
2023/07/17 09:18:54;;;;;;;9.18;4.35;;;;;;;34.98;32.82;99708.34;7632725;32;39970;-86
2023/07/17 09:23:11;;;;;;;7.62;3.80;;;;;;;34.93;33.03;99711.72;7632882;32;38483;-82
2023/07/17 09:27:27;;;;;;;6.32;3.83;;;;;;;35.10;31.27;99706.84;7632037;32;36986;-83
2023/07/17 09:31:43;;;;;;;8.27;4.62;;;;;;;35.28;33.03;99700.75;7647993;32;40137;-83
2023/07/17 09:36:02;;;;;;;8.82;5.00;;;;;;;35.54;31.37;99699.66;7640468;32;39491;-84
2023/07/17 09:40:19;;;;;;;11.30;5.25;;;;;;;35.86;30.24;99706.53;7643922;32;37703;-85
2023/07/17 09:44:36;;;;;;;8.85;5.20;;;;;;;35.85;29.48;99696.41;7641895;32;36308;-83
2023/07/17 09:48:53;;;;;;;6.78;4.30;;;;;;;35.83;29.84;99695.28;7634461;32;39377;-83
2023/07/17 09:53:10;;;;;;;6.75;4.07;;;;;;;36.04;28.57;99696.72;7643593;32;40760;-84
2023/07/17 09:57:39;;;;;;;6.05;4.30;;;;;;;36.33;30.56;99693.06;7643574;32;37908;-82
2023/07/17 10:01:57;;;;;;;7.55;4.70;;;;;;;36.33;30.04;99696.69;7640576;32;37505;-85
2023/07/17 10:06:15;;;;;;;7.05;4.47;;;;;;;36.28;29.30;99695.22;7634126;32;39233;-85
2023/07/17 10:10:31;;;;;;;12.35;4.95;;;;;;;36.36;30.88;99683.63;7641803;32;40914;-84
2023/07/17 10:14:48;;;;;;;8.02;4.43;;;;;;;35.81;29.38;99683.59;7641064;32;38022;-84
2023/07/17 10:19:04;;;;;;;5.87;4.45;;;;;;;35.93;29.64;99680.00;7639404;32;37001;-84
2023/07/17 10:23:29;;;;;;;7.25;4.70;;;;;;;36.21;29.20;99684.06;7643217;32;38784;-85
2023/07/17 10:27:55;;;;;;;7.85;4.87;;;;;;;36.63;28.92;99672.63;7647143;32;39172;-82
2023/07/17 10:32:14;;;;;;;6.05;4.28;;;;;;;36.63;28.59;99669.00;7657969;32;37933;-82
2023/07/17 10:36:44;;;;;;;14.32;8.43;;;;;;;37.12;28.89;99656.50;7656764;32;37016;-82
2023/07/17 10:41:11;;;;;;;7.43;4.35;;;;;;;37.19;27.50;99647.78;7658099;32;39125;-82
2023/07/17 10:45:35;;;;;;;5.97;4.60;;;;;;;37.52;28.20;99650.28;7657585;32;40912;-82
2023/07/17 10:49:51;;;;;;;6.85;4.70;;;;;;;37.87;27.34;99641.72;7656633;32;37950;-82
2023/07/17 10:54:08;;;;;;;6.43;4.03;;;;;;;37.89;26.56;99637.13;7657854;32;37073;-82
2023/07/17 10:58:24;;;;;;;6.93;4.90;;;;;;;38.30;27.33;99637.25;7656922;32;39069;-83
2023/07/17 11:02:40;;;;;;;9.98;4.47;;;;;;;38.62;26.71;99638.03;7656111;32;40739;-82
2023/07/17 11:07:09;;;;;;;6.75;4.47;;;;;;;39.00;27.06;99636.88;7656728;32;38790;-83
2023/07/17 11:11:25;;;;;;;7.32;4.15;;;;;;;39.25;25.57;99635.84;7657350;32;37794;-82
2023/07/17 11:15:44;;;;;;;8.57;4.20;;;;;;;39.04;27.57;99626.94;7642982;32;38485;-80
2023/07/17 11:20:04;;;;;;;11.40;4.50;;;;;;;39.37;25.63;99614.16;7640727;32;39497;-82
2023/07/17 11:24:21;;;;;;;8.60;4.03;;;;;;;39.45;24.81;99606.88;7641989;32;37721;-83
2023/07/17 11:28:39;;;;;;;10.25;4.50;;;;;;;39.67;24.68;99600.22;7634112;32;36411;-87
2023/07/17 11:32:58;;;;;;;9.32;4.30;;;;;;;39.14;25.03;99593.56;7636659;32;39108;-86
2023/07/17 11:37:35;;;;;;;9.10;4.85;;;;;;;38.75;25.62;99593.12;7649861;32;40296;-87
2023/07/17 11:41:55;;;;;;;7.45;4.43;;;;;;;38.62;26.02;99581.06;7648789;32;38685;-85
2023/07/17 11:46:12;;;;;;;7.30;4.50;;;;;;;38.67;25.65;99578.41;7649832;32;38508;-83
2023/07/17 11:50:28;;;;;;;8.68;4.55;;;;;;;38.42;26.02;99570.09;7656560;32;39195;-83
2023/07/17 11:54:45;;;;;;;8.13;4.68;;;;;;;38.47;26.68;99567.41;7641145;32;40730;-85
2023/07/17 11:59:02;;;;;;;7.75;4.70;;;;;;;38.26;24.79;99569.09;7648449;32;37176;-83
2023/07/17 12:03:18;;;;;;;12.98;4.90;;;;;;;38.01;25.95;99575.72;7647355;32;37065;-84
2023/07/17 12:07:35;;;;;;;6.90;4.55;;;;;;;37.50;25.83;99573.19;7645964;32;38957;-82
2023/07/17 12:11:51;;;;;;;18.12;5.12;;;;;;;37.69;27.95;99577.75;7646099;32;40161;-83
2023/07/17 12:16:07;;;;;;;7.28;4.90;;;;;;;37.61;27.76;99564.25;7643897;32;37876;-85
2023/07/17 12:20:25;;;;;;;10.30;4.62;;;;;;;38.12;26.04;99550.53;7649528;32;37802;-84
2023/07/17 12:24:41;;;;;;;10.93;4.95;;;;;;;37.91;25.75;99562.72;7651508;32;40067;-83
2023/07/17 12:28:57;;;;;;;8.23;5.22;;;;;;;38.17;25.64;99548.31;7656935;32;39850;-83
2023/07/17 12:33:15;;;;;;;8.40;4.75;;;;;;;38.54;25.93;99554.16;7659328;32;37895;-83
2023/07/17 12:37:31;;;;;;;9.10;4.95;;;;;;;39.05;26.62;99542.22;7659210;32;37705;-82
2023/07/17 12:41:48;;;;;;;9.07;5.30;;;;;;;39.50;25.85;99531.31;7658243;32;39454;-84
2023/07/17 12:46:04;;;;;;;9.18;4.87;;;;;;;39.30;26.07;99529.72;7659463;32;39562;-84
2023/07/17 12:50:20;;;;;;;7.85;4.85;;;;;;;38.88;25.69;99528.28;7649132;32;37943;-83
2023/07/17 12:54:37;;;;;;;9.80;5.25;;;;;;;38.57;26.32;99533.25;7648259;32;37757;-84
2023/07/17 12:58:53;;;;;;;9.98;5.10;;;;;;;38.70;27.50;99519.72;7651429;32;40118;-81
2023/07/17 13:03:09;;;;;;;11.12;5.47;;;;;;;38.44;27.00;99527.69;7658955;32;40128;-82
2023/07/17 13:07:25;;;;;;;11.18;5.55;;;;;;;37.43;28.33;99511.72;7658869;32;37961;-83
2023/07/17 13:11:41;;;;;;;9.63;5.93;;;;;;;38.26;27.99;99500.78;7658824;32;37854;-84
2023/07/17 13:15:58;;;;;;;9.77;5.40;;;;;;;37.82;27.94;99497.25;7659390;32;37937;-84
2023/07/17 13:20:17;;;;;;;8.43;4.57;;;;;;;37.80;29.81;99511.94;7658714;32;39696;-86
2023/07/17 13:24:33;;;;;;;9.55;4.30;;;;;;;37.58;26.13;99517.62;7658771;32;38737;-85
2023/07/17 13:28:49;;;;;;;10.60;5.40;;;;;;;37.01;27.24;99521.31;7658400;32;37273;-86
2023/07/17 13:33:05;;;;;;;16.95;6.62;;;;;;;36.33;31.83;99557.66;7653164;32;39464;-84
2023/07/17 13:37:21;;;;;;;11.82;6.32;;;;;;;34.93;35.23;99567.31;7657708;32;40050;-83
2023/07/17 13:41:58;;;;;;;8.70;6.05;;;;;;;35.16;35.55;99575.56;7657339;32;38834;-84
2023/07/17 13:46:15;;;;;;;12.25;6.60;;;;;;;35.70;35.89;99581.78;7657851;32;37043;-84
2023/07/17 13:50:31;;;;;;;11.57;6.30;;;;;;;35.89;34.89;99595.03;7657711;32;39363;-86
2023/07/17 13:54:48;;;;;;;18.05;6.93;;;;;;;35.86;35.81;99607.28;7643934;32;40848;-86
2023/07/17 13:59:08;;;;;;;19.55;6.53;;;;;;;35.35;37.01;99612.72;7648678;32;38313;-84
2023/07/17 14:03:24;;;;;;;16.90;6.50;;;;;;;34.98;36.84;99612.06;7630021;32;36925;-83
2023/07/17 14:07:40;;;;;;;12.35;5.87;;;;;;;34.79;37.96;99616.59;7656400;32;39445;-82
2023/07/17 14:11:57;;;;;;;14.48;6.43;;;;;;;34.92;36.73;99616.66;7657816;32;39943;-84
2023/07/17 14:16:14;;;;;;;8.20;5.80;;;;;;;34.36;38.33;99623.25;7656966;32;37932;-83
2023/07/17 14:20:31;;;;;;;11.15;6.32;;;;;;;34.43;37.86;99611.75;7658215;32;37085;-83
2023/07/17 14:24:48;;;;;;;12.30;6.07;;;;;;;34.60;36.88;99595.59;7662029;32;39315;-84
2023/07/17 14:29:04;;;;;;;12.65;6.03;;;;;;;34.53;36.26;99602.22;7657370;32;39570;-85
2023/07/17 14:33:22;;;;;;;24.02;6.43;;;;;;;34.50;37.99;99610.78;7655849;32;38740;-85
2023/07/17 14:37:38;;;;;;;9.52;5.60;;;;;;;34.38;37.11;99615.91;7656540;32;37194;-84
2023/07/17 14:41:54;;;;;;;10.05;5.62;;;;;;;34.31;36.35;99621.72;7656454;32;39009;-85
2023/07/17 14:46:11;;;;;;;12.73;5.78;;;;;;;34.42;36.00;99605.28;7656377;32;40821;-85
2023/07/17 14:50:29;;;;;;;9.57;5.22;;;;;;;34.10;35.93;99610.84;7657980;32;38006;-84
2023/07/17 14:54:45;;;;;;;8.25;4.70;;;;;;;34.54;34.75;99603.00;7655579;32;38011;-84
2023/07/17 14:59:01;;;;;;;12.70;4.70;;;;;;;34.85;34.40;99605.53;7657557;32;39403;-85
2023/07/17 15:03:18;;;;;;;7.45;4.90;;;;;;;35.43;33.23;99580.13;7649458;32;39745;-86
2023/07/17 15:07:35;;;;;;;8.45;4.57;;;;;;;35.56;34.12;99585.03;7651152;32;37929;-84
2023/07/17 15:11:51;;;;;;;7.78;4.78;;;;;;;35.49;34.27;99586.81;7656946;32;37118;-83
2023/07/17 15:16:07;;;;;;;6.05;3.90;;;;;;;35.56;33.49;99596.37;7656384;32;40048;-82
2023/07/17 15:20:24;;;;;;;10.82;4.07;;;;;;;36.15;32.41;99595.06;7657242;32;39827;-86
2023/07/17 15:24:40;;;;;;;7.15;4.07;;;;;;;36.20;31.64;99607.88;7655274;32;38110;-82
2023/07/17 15:28:57;;;;;;;8.70;4.20;;;;;;;36.31;30.85;99607.56;7655796;32;37474;-82
2023/07/17 15:33:14;;;;;;;9.02;3.45;;;;;;;36.09;30.55;99608.22;7655906;32;39182;-85
2023/07/17 15:37:30;;;;;;;10.93;4.15;;;;;;;36.12;30.21;99607.31;7655507;32;40630;-87
2023/07/17 15:41:46;;;;;;;6.25;3.50;;;;;;;36.19;31.22;99598.59;7648012;32;37642;-86
2023/07/17 15:46:03;;;;;;;5.12;3.40;;;;;;;35.94;30.76;99607.06;7641239;32;37227;-84
2023/07/17 15:50:19;;;;;;;5.32;3.65;;;;;;;35.25;31.59;99605.31;7646853;32;39519;-85
2023/07/17 15:54:35;;;;;;;5.82;3.53;;;;;;;35.60;31.65;99599.91;7637079;32;40395;-84
2023/07/17 15:58:51;;;;;;;6.18;3.67;;;;;;;35.53;31.46;99612.22;7654628;32;38677;-87
2023/07/17 16:03:08;;;;;;;6.72;3.90;;;;;;;35.55;30.98;99609.78;7645162;32;37899;-86
2023/07/17 16:07:24;;;;;;;7.32;3.67;;;;;;;35.20;32.00;99614.31;7653093;32;39263;-83
2023/07/17 16:11:40;;;;;;;8.95;3.78;;;;;;;34.96;32.51;99615.34;7659282;32;40755;-84
2023/07/17 16:15:57;;;;;;;8.25;3.67;;;;;;;34.86;33.21;99621.25;7658559;32;37924;-84
2023/07/17 16:20:13;;;;;;;6.68;3.70;;;;;;;34.97;33.08;99625.41;7659450;32;37398;-84
2023/07/17 16:24:31;;;;;;;5.30;3.35;;;;;;;34.94;32.89;99629.13;7658759;32;40150;-82
2023/07/17 16:28:47;;;;;;;5.35;3.80;;;;;;;34.77;33.23;99636.03;7658506;32;40602;-84
2023/07/17 16:33:04;;;;;;;10.07;4.53;;;;;;;35.11;33.42;99641.25;7658872;32;38764;-83
2023/07/17 16:37:21;;;;;;;7.87;4.68;;;;;;;35.65;32.67;99641.88;7658669;32;37097;-83
2023/07/17 16:41:38;;;;;;;12.80;4.50;;;;;;;35.61;32.45;99652.53;7657871;32;40181;-82
2023/07/17 16:45:54;;;;;;;6.30;4.28;;;;;;;35.87;33.11;99653.44;7658765;32;39969;-81
2023/07/17 16:50:12;;;;;;;9.80;4.43;;;;;;;35.82;33.24;99657.59;7658753;32;36714;-81
2023/07/17 16:54:28;;;;;;;10.90;4.62;;;;;;;35.40;34.41;99666.03;7658604;32;36766;-82
2023/07/17 16:58:45;;;;;;;7.28;4.32;;;;;;;35.49;33.62;99671.06;7656988;32;40229;-85
2023/07/17 17:03:01;;;;;;;7.82;4.20;;;;;;;35.30;34.41;99665.06;7658735;32;39987;-84
2023/07/17 17:07:18;;;;;;;8.02;4.82;;;;;;;35.43;33.54;99667.97;7657835;32;37990;-85
2023/07/17 17:11:34;;;;;;;6.15;4.53;;;;;;;35.47;33.99;99663.00;7658552;32;36761;-87
2023/07/17 17:15:51;;;;;;;7.37;4.57;;;;;;;35.52;34.92;99662.47;7658604;32;39731;-84
2023/07/17 17:20:09;;;;;;;8.23;5.07;;;;;;;35.17;35.64;99661.34;7658556;32;40891;-80
2023/07/17 17:24:25;;;;;;;5.87;4.40;;;;;;;35.09;36.25;99669.22;7657236;32;37876;-81
2023/07/17 17:28:41;;;;;;;7.22;3.97;;;;;;;34.92;36.28;99668.41;7657817;32;37101;-81
2023/07/17 17:32:58;;;;;;;14.20;4.85;;;;;;;34.84;36.36;99669.84;7656824;32;39195;-81
2023/07/17 17:37:14;;;;;;;6.93;4.60;;;;;;;34.84;36.47;99667.03;7658307;32;39906;-80
2023/07/17 17:41:32;;;;;;;20.80;5.55;;;;;;;34.46;37.15;99663.81;7657111;32;37915;-79
2023/07/17 17:45:48;;;;;;;6.43;4.22;;;;;;;34.08;37.96;99669.88;7658305;32;37228;-79
2023/07/17 17:50:05;;;;;;;7.40;4.55;;;;;;;34.16;37.63;99676.97;7657507;32;39619;-78
2023/07/17 17:54:22;;;;;;;10.48;4.55;;;;;;;33.91;38.24;99683.97;7657694;32;39921;-79
2023/07/17 17:58:38;;;;;;;9.32;4.45;;;;;;;33.61;38.82;99685.69;7655543;32;38552;-79
2023/07/17 18:02:54;;;;;;;9.75;4.18;;;;;;;33.37;39.53;99695.44;7657882;32;36761;-78
2023/07/17 18:07:10;;;;;;;6.72;4.20;;;;;;;33.07;39.91;99702.75;7658102;32;39309;-79
2023/07/17 18:11:27;;;;;;;6.62;4.25;;;;;;;32.91;40.49;99698.56;7657781;32;40795;-79
2023/07/17 18:15:43;;;;;;;8.55;4.28;;;;;;;32.64;41.04;99709.06;7657562;32;37987;-79
2023/07/17 18:19:59;;;;;;;6.57;4.40;;;;;;;32.45;41.73;99705.66;7653663;32;38126;-79
2023/07/17 18:24:16;;;;;;;8.38;4.43;;;;;;;32.28;41.88;99707.47;7654087;32;40077;-79
2023/07/17 18:28:32;;;;;;;6.97;4.53;;;;;;;32.21;42.01;99709.59;7656783;32;39673;-79
2023/07/17 18:32:48;;;;;;;7.07;4.47;;;;;;;31.86;42.80;99705.91;7657307;32;37856;-80
2023/07/17 18:37:05;;;;;;;8.88;4.90;;;;;;;31.74;42.89;99707.28;7650259;32;37775;-79
2023/07/17 18:41:21;;;;;;;9.20;4.50;;;;;;;31.40;43.84;99713.59;7656641;32;39441;-79
2023/07/17 18:45:37;;;;;;;6.82;4.50;;;;;;;31.23;44.13;99709.72;7657518;32;40042;-79
2023/07/17 18:49:53;;;;;;;8.13;4.30;;;;;;;31.15;44.19;99711.00;7655782;32;37388;-79
2023/07/17 18:54:10;;;;;;;7.75;4.28;;;;;;;30.89;44.96;99722.41;7656349;32;37127;-79
2023/07/17 18:58:26;;;;;;;10.75;4.85;;;;;;;30.61;45.82;99722.56;7656907;32;39167;-79
2023/07/17 19:02:42;;;;;;;8.05;4.43;;;;;;;30.47;46.22;99729.88;7653663;32;39907;-79
2023/07/17 19:06:58;;;;;;;8.05;4.80;;;;;;;30.21;46.83;99725.53;7637575;32;38695;-79
2023/07/17 19:11:18;;;;;;;7.07;4.95;;;;;;;30.09;47.07;99734.44;7629977;32;38108;-79
2023/07/17 19:15:35;;;;;;;7.93;5.00;;;;;;;29.98;47.41;99742.87;7630440;32;39475;-82
2023/07/17 19:19:51;;;;;;;10.20;4.82;;;;;;;29.91;47.35;99732.47;7638356;32;40187;-82
2023/07/17 19:24:07;;;;;;;19.10;5.82;;;;;;;29.83;47.71;99744.91;7640658;32;37542;-81
2023/07/17 19:28:24;;;;;;;11.65;5.25;;;;;;;29.68;48.14;99737.69;7641212;32;36489;-80
2023/07/17 19:32:42;;;;;;;12.70;5.20;;;;;;;29.55;48.45;99738.09;7640319;32;40158;-81
2023/07/17 19:36:58;;;;;;;8.18;5.10;;;;;;;29.43;48.91;99735.72;7640598;32;40035;-80
2023/07/17 19:41:15;;;;;;;8.65;5.10;;;;;;;29.36;48.88;99733.72;7643198;32;38747;-81
2023/07/17 19:45:32;;;;;;;7.37;4.90;;;;;;;28.97;50.38;99747.69;7644313;32;38276;-83
2023/07/17 19:49:49;;;;;;;10.32;5.57;;;;;;;28.82;50.69;99742.03;7642092;32;40219;-81
2023/07/17 19:54:05;;;;;;;10.27;5.60;;;;;;;28.74;50.65;99742.44;7641610;32;39702;-84
2023/07/17 19:58:22;;;;;;;7.12;4.75;;;;;;;28.69;50.53;99742.81;7640367;32;37979;-83